Time;durP1;ratioP1;P1;durP2;ratioP2;P2;SDS_P1;SDS_P2;PMS_P1;PMS_P2;Temp;Humidity;BMP_temperature;BMP_pressure;BME280_temperature;BME280_humidity;BME280_pressure;Samples;Min_cycle;Max_cycle;Signal;HPM_P1;HPM_P2
2023/09/28 00:03:09;;;;;;;19.55;2.15;;;;;;;13.37;100.00;99220.28;5034747;28;20095;-85
2023/09/28 00:22:09;;;;;;;11.50;1.67;;;;;;;13.30;100.00;99264.53;4935877;29;20081;-92
2023/09/28 00:25:21;;;;;;;;;;;;;;;;;;;;;
2023/09/28 00:31:59;;;;;;;16.33;2.15;;;;;;;13.29;100.00;99279.63;4980683;28;20042;-91
2023/09/28 00:34:30;;;;;;;12.27;2.13;;;;;;;13.27;100.00;99292.25;4966848;28;20057;-92
2023/09/28 00:37:40;;;;;;;16.13;2.30;;;;;;;13.23;100.00;99304.25;5032636;28;20122;-86
2023/09/28 00:44:19;;;;;;;;;;;;;;;;;;;;;
2023/09/28 00:47:04;;;;;;;;;;;;;;;;;;;;;
2023/09/28 00:49:43;;;;;;;12.93;1.95;;;;;;;13.22;100.00;99345.09;5068451;28;20036;-91
2023/09/28 00:53:08;;;;;;;17.50;2.35;;;;;;;13.29;100.00;99348.63;5071295;28;20044;-89
2023/09/28 00:59:22;;;;;;;;;;;;;;;;;;;;;
2023/09/28 01:06:23;;;;;;;11.05;2.10;;;;;;;13.34;100.00;99361.31;5006403;28;20047;-90
2023/09/28 01:14:19;;;;;;;14.00;1.70;;;;;;;13.39;100.00;99375.66;5010713;28;20044;-90
2023/09/28 01:24:41;;;;;;;14.57;2.28;;;;;;;13.41;100.00;99415.28;4931719;28;20067;-88
2023/09/28 01:27:10;;;;;;;12.23;1.17;;;;;;;13.44;100.00;99437.97;5041549;28;20138;-90
2023/09/28 01:29:36;;;;;;;13.95;2.00;;;;;;;13.38;100.00;99426.25;5036550;28;20046;-91
2023/09/28 01:32:02;;;;;;;9.73;1.92;;;;;;;13.39;100.00;99442.00;5056627;28;20032;-85
2023/09/28 01:34:28;;;;;;;12.55;1.55;;;;;;;13.37;100.00;99448.53;5061950;28;20059;-90
2023/09/28 01:36:57;;;;;;;9.45;1.35;;;;;;;13.39;100.00;99449.97;5036190;28;20039;-90
2023/09/28 01:39:26;;;;;;;12.90;1.88;;;;;;;13.38;100.00;99464.25;5040966;28;20040;-91
2023/09/28 01:41:52;;;;;;;10.82;1.63;;;;;;;13.43;100.00;99463.69;5041683;28;20122;-89
2023/09/28 01:44:18;;;;;;;4.65;0.95;;;;;;;13.42;100.00;99470.03;5070159;28;20085;-91
2023/09/28 01:46:47;;;;;;;10.18;1.92;;;;;;;13.35;100.00;99466.44;5036241;28;20163;-87
2023/09/28 01:49:13;;;;;;;9.32;0.90;;;;;;;13.34;100.00;99470.97;5060771;28;20111;-90
2023/09/28 01:51:39;;;;;;;7.03;0.98;;;;;;;13.33;100.00;99471.16;5039988;28;20043;-89
2023/09/28 01:54:05;;;;;;;12.52;1.38;;;;;;;13.30;100.00;99460.91;5062555;28;20031;-88
2023/09/28 01:56:30;;;;;;;8.00;1.45;;;;;;;13.32;100.00;99453.56;5053324;28;20375;-89
2023/09/28 01:58:57;;;;;;;12.07;1.77;;;;;;;13.31;100.00;99450.09;5075373;28;20054;-88
2023/09/28 02:01:26;;;;;;;14.93;1.52;;;;;;;13.34;100.00;99439.09;5069596;28;21381;-91
2023/09/28 02:03:53;;;;;;;13.48;2.03;;;;;;;13.28;100.00;99431.91;5070675;28;20628;-91
2023/09/28 02:06:19;;;;;;;9.80;1.60;;;;;;;13.34;100.00;99451.53;5069082;28;20032;-90
2023/09/28 02:08:45;;;;;;;9.15;1.60;;;;;;;13.30;100.00;99447.63;5065831;28;20035;-92
2023/09/28 02:11:12;;;;;;;12.07;1.75;;;;;;;13.33;100.00;99447.25;5060577;28;20468;-90
2023/09/28 02:13:38;;;;;;;10.50;1.50;;;;;;;13.26;100.00;99448.00;5078442;28;20071;-91
2023/09/28 02:16:08;;;;;;;10.25;1.27;;;;;;;13.32;100.00;99441.13;5053517;28;20042;-90
2023/09/28 02:18:34;;;;;;;9.32;1.27;;;;;;;13.25;100.00;99448.19;5065018;28;20471;-90
2023/09/28 02:21:00;;;;;;;7.18;1.20;;;;;;;13.21;100.00;99441.59;5064843;28;20027;-90
2023/09/28 02:23:26;;;;;;;8.02;1.20;;;;;;;13.15;100.00;99425.41;5082044;28;20053;-94
2023/09/28 02:25:52;;;;;;;11.95;2.08;;;;;;;13.16;100.00;99431.53;5078057;28;20118;-91
2023/09/28 02:28:18;;;;;;;12.10;1.42;;;;;;;13.11;100.00;99439.22;5095546;28;20081;-92
2023/09/28 02:30:44;;;;;;;9.52;1.60;;;;;;;13.03;100.00;99451.59;5090951;27;20062;-92
2023/09/28 02:33:10;;;;;;;15.93;1.73;;;;;;;13.01;100.00;99450.16;5051022;28;20070;-92
2023/09/28 02:35:36;;;;;;;10.60;1.60;;;;;;;12.97;100.00;99452.34;5056631;28;20043;-89
2023/09/28 02:38:02;;;;;;;10.20;2.13;;;;;;;13.01;100.00;99466.88;5059928;28;20032;-89
2023/09/28 02:40:29;;;;;;;9.13;1.90;;;;;;;12.97;100.00;99460.31;5062519;28;20023;-87
2023/09/28 02:42:55;;;;;;;10.00;1.98;;;;;;;12.98;100.00;99461.13;5073156;28;20031;-89
2023/09/28 02:45:21;;;;;;;11.57;2.00;;;;;;;12.94;100.00;99452.72;5063524;28;20024;-90
2023/09/28 02:47:48;;;;;;;16.25;2.28;;;;;;;12.95;100.00;99470.28;5065246;28;20471;-89
2023/09/28 02:50:16;;;;;;;8.68;1.75;;;;;;;12.96;100.00;99481.72;5063899;28;20059;-90
2023/09/28 02:52:52;;;;;;;11.90;2.35;;;;;;;12.91;100.00;99482.25;5067111;28;20077;-90
2023/09/28 02:55:18;;;;;;;;;;;;;;;12.85;100.00;99490.94;5064933;28;20038;-91
2023/09/28 02:57:44;;;;;;;11.85;2.22;;;;;;;12.82;100.00;99491.31;5091185;28;20339;-90
2023/09/28 03:00:14;;;;;;;15.32;1.48;;;;;;;12.87;100.00;99512.78;5057232;28;20117;-89
2023/09/28 03:02:40;;;;;;;18.55;1.73;;;;;;;12.79;100.00;99508.41;5072497;28;20475;-91
2023/09/28 03:05:07;;;;;;;12.93;1.50;;;;;;;12.86;100.00;99529.72;5061580;28;20065;-90
2023/09/28 03:07:35;;;;;;;8.10;1.40;;;;;;;12.82;100.00;99523.94;5076129;28;20065;-90
2023/09/28 03:10:05;;;;;;;10.82;2.17;;;;;;;12.83;100.00;99528.25;5079150;28;20088;-92
2023/09/28 03:12:32;;;;;;;8.70;1.52;;;;;;;12.80;100.00;99533.09;5059647;28;20131;-93
2023/09/28 03:14:58;;;;;;;20.70;2.78;;;;;;;12.81;100.00;99532.91;5065567;28;20039;-90
2023/09/28 03:17:24;;;;;;;14.45;2.40;;;;;;;12.73;100.00;99515.25;5057317;28;20116;-93
2023/09/28 03:19:51;;;;;;;15.23;2.10;;;;;;;12.79;100.00;99526.97;5061856;28;20139;-91
2023/09/28 03:22:19;;;;;;;17.27;2.45;;;;;;;12.77;100.00;99526.34;5057150;28;20063;-89
2023/09/28 03:24:47;;;;;;;17.42;2.40;;;;;;;12.73;100.00;99520.56;5054850;28;20031;-92
2023/09/28 03:27:13;;;;;;;14.88;2.53;;;;;;;12.74;100.00;99518.75;5059579;28;20059;-92
2023/09/28 03:29:38;;;;;;;11.07;2.05;;;;;;;12.77;100.00;99535.09;5062302;28;20039;-91
2023/09/28 03:32:04;;;;;;;18.77;2.83;;;;;;;12.73;100.00;99540.94;5062806;28;20784;-90
2023/09/28 03:34:30;;;;;;;17.38;2.05;;;;;;;12.67;100.00;99534.56;5074496;28;20028;-91
2023/09/28 03:36:56;;;;;;;13.00;2.10;;;;;;;12.66;100.00;99543.53;5055939;28;21028;-90
2023/09/28 03:39:24;;;;;;;18.88;2.70;;;;;;;12.63;100.00;99543.84;5063953;28;20035;-92
2023/09/28 03:41:50;;;;;;;14.82;2.20;;;;;;;12.59;100.00;99548.72;5057206;28;20043;-91
2023/09/28 03:44:16;;;;;;;15.65;1.80;;;;;;;12.56;100.00;99546.41;5062118;27;20040;-91
2023/09/28 03:46:42;;;;;;;15.65;2.40;;;;;;;12.48;100.00;99536.72;5064281;28;20046;-91
2023/09/28 03:49:08;;;;;;;13.85;2.15;;;;;;;12.48;100.00;99544.66;5065558;28;20501;-92
2023/09/28 03:51:34;;;;;;;15.60;2.70;;;;;;;12.47;100.00;99528.94;5055193;28;20028;-92
2023/09/28 03:53:59;;;;;;;13.40;1.98;;;;;;;12.41;100.00;99522.53;5074029;28;20047;-90
2023/09/28 03:56:26;;;;;;;14.85;2.08;;;;;;;12.37;100.00;99519.44;5058394;28;20027;-91
2023/09/28 03:58:51;;;;;;;13.95;1.90;;;;;;;12.41;100.00;99533.13;5059682;28;20031;-90
2023/09/28 04:01:18;;;;;;;17.63;2.03;;;;;;;12.37;100.00;99537.13;5052768;28;20067;-92
2023/09/28 04:03:44;;;;;;;12.35;2.20;;;;;;;12.35;100.00;99545.28;5054864;28;20035;-89
2023/09/28 04:06:10;;;;;;;13.32;1.73;;;;;;;12.35;100.00;99555.03;5051203;28;20047;-92
2023/09/28 04:08:37;;;;;;;17.90;3.25;;;;;;;12.28;100.00;99558.41;5057639;28;20036;-92
2023/09/28 04:11:02;;;;;;;16.35;2.53;;;;;;;12.31;100.00;99565.16;5058459;28;20123;-91
2023/09/28 04:13:28;;;;;;;17.77;2.33;;;;;;;12.26;100.00;99555.09;5062408;28;20540;-90
2023/09/28 04:15:54;;;;;;;15.93;2.47;;;;;;;12.24;100.00;99572.19;5055698;28;20040;-91
2023/09/28 04:18:20;;;;;;;14.30;2.03;;;;;;;12.21;100.00;99567.22;5059223;28;20039;-92
2023/09/28 04:20:48;;;;;;;15.00;1.98;;;;;;;12.15;100.00;99566.94;5057172;28;20032;-92
2023/09/28 04:23:17;;;;;;;12.32;1.90;;;;;;;12.12;100.00;99563.84;5053787;28;20107;-92
2023/09/28 04:25:43;;;;;;;14.18;2.60;;;;;;;11.99;100.00;99557.25;5070637;28;20126;-91
2023/09/28 04:28:08;;;;;;;9.82;1.73;;;;;;;12.02;100.00;99550.78;5057101;28;20131;-91
2023/09/28 04:30:36;;;;;;;14.38;2.38;;;;;;;11.89;100.00;99554.00;5073345;28;20028;-91
2023/09/28 04:33:02;;;;;;;14.25;2.30;;;;;;;11.86;100.00;99541.13;5053137;28;20028;-92
2023/09/28 04:35:28;;;;;;;16.52;2.40;;;;;;;11.87;100.00;99530.34;5060326;28;20035;-92
2023/09/28 04:37:56;;;;;;;10.30;1.77;;;;;;;11.86;100.00;99535.81;5063095;28;20479;-91
2023/09/28 04:40:25;;;;;;;16.35;2.20;;;;;;;11.84;100.00;99535.16;5061927;28;20056;-92
2023/09/28 04:42:52;;;;;;;7.97;1.58;;;;;;;11.86;100.00;99539.31;5052778;28;20039;-91
2023/09/28 04:45:19;;;;;;;17.10;2.10;;;;;;;11.82;100.00;99526.59;5066041;28;20036;-92
2023/09/28 04:47:46;;;;;;;16.83;1.58;;;;;;;11.82;100.00;99524.75;5056184;28;20063;-91
2023/09/28 04:50:15;;;;;;;15.38;1.83;;;;;;;11.79;100.00;99520.63;5069026;28;20036;-90
2023/09/28 04:52:43;;;;;;;14.27;1.85;;;;;;;11.72;100.00;99508.28;5061980;28;20039;-91
2023/09/28 04:55:12;;;;;;;16.33;3.30;;;;;;;11.64;100.00;99512.59;5093382;27;20328;-92
2023/09/28 04:57:38;;;;;;;14.02;2.13;;;;;;;11.71;100.00;99531.28;5066318;28;20097;-90
2023/09/28 05:00:06;;;;;;;9.80;2.03;;;;;;;11.68;100.00;99528.97;5072115;28;20119;-92
2023/09/28 05:02:32;;;;;;;11.80;1.77;;;;;;;11.67;100.00;99529.97;5098166;28;20094;-92
2023/09/28 05:05:01;;;;;;;13.02;1.80;;;;;;;11.67;100.00;99532.63;5056042;28;20027;-91
2023/09/28 05:07:31;;;;;;;14.55;2.20;;;;;;;11.63;100.00;99529.50;5077431;28;20122;-92
2023/09/28 05:10:28;;;;;;;14.25;2.42;;;;;;;11.62;100.00;99530.50;5074866;28;20450;-91
2023/09/28 05:12:54;;;;;;;17.63;2.22;;;;;;;11.61;100.00;99534.13;5063562;28;20544;-92
2023/09/28 05:15:20;;;;;;;12.60;1.92;;;;;;;11.65;100.00;99545.19;5074091;28;20068;-90
2023/09/28 05:17:47;;;;;;;11.25;1.92;;;;;;;11.61;100.00;99557.94;5056419;28;20407;-91
2023/09/28 05:20:13;;;;;;;13.05;2.80;;;;;;;11.59;100.00;99559.97;5055831;28;20122;-91
2023/09/28 05:22:38;;;;;;;14.25;2.72;;;;;;;11.61;100.00;99565.91;5052472;28;20429;-90
2023/09/28 05:25:06;;;;;;;15.35;2.05;;;;;;;11.59;100.00;99565.25;5079059;28;20042;-91
2023/09/28 05:27:35;;;;;;;16.73;2.38;;;;;;;11.53;100.00;99560.66;5077049;28;20034;-91
2023/09/28 05:30:01;;;;;;;14.30;2.30;;;;;;;11.57;100.00;99551.38;5060743;28;20027;-91
2023/09/28 05:32:30;;;;;;;11.75;2.00;;;;;;;11.53;100.00;99548.22;5056482;28;20369;-92
2023/09/28 05:34:56;;;;;;;14.00;2.30;;;;;;;11.50;100.00;99551.22;5064047;28;20062;-92
2023/09/28 05:37:22;;;;;;;16.55;2.35;;;;;;;11.51;100.00;99549.41;5062978;28;20480;-90
2023/09/28 05:39:48;;;;;;;16.60;2.38;;;;;;;11.54;100.00;99546.41;5079095;28;20036;-92
2023/09/28 05:42:14;;;;;;;12.05;2.47;;;;;;;11.56;100.00;99543.59;5054343;28;20651;-92
2023/09/28 05:44:40;;;;;;;16.70;2.50;;;;;;;11.56;100.00;99564.78;5061456;28;20480;-91
2023/09/28 05:47:06;;;;;;;25.00;2.75;;;;;;;11.54;100.00;99555.19;5068727;28;20051;-92
2023/09/28 05:49:32;;;;;;;13.63;2.83;;;;;;;11.57;100.00;99555.81;5055133;28;20043;-91
2023/09/28 05:51:58;;;;;;;13.20;2.55;;;;;;;11.57;100.00;99569.06;5052267;28;20052;-90
2023/09/28 05:54:26;;;;;;;19.02;3.05;;;;;;;11.58;100.00;99558.31;5070867;28;20149;-90
2023/09/28 05:56:52;;;;;;;20.35;3.50;;;;;;;11.60;100.00;99555.47;5061764;28;20057;-90
2023/09/28 05:59:17;;;;;;;15.20;2.55;;;;;;;11.60;100.00;99552.84;5061154;28;20116;-90
2023/09/28 06:01:44;;;;;;;18.42;2.70;;;;;;;11.58;100.00;99558.31;5054222;28;20043;-92
2023/09/28 06:04:11;;;;;;;15.32;2.65;;;;;;;11.61;100.00;99559.78;5050450;28;20044;-91
2023/09/28 06:06:37;;;;;;;20.48;3.22;;;;;;;11.65;100.00;99566.38;5072318;28;20585;-91
2023/09/28 06:09:03;;;;;;;17.90;3.03;;;;;;;11.63;100.00;99555.13;5055759;28;20039;-91
2023/09/28 06:11:30;;;;;;;18.65;2.47;;;;;;;11.63;100.00;99569.19;5061049;28;20040;-90
2023/09/28 06:13:55;;;;;;;17.08;2.75;;;;;;;11.66;100.00;99560.06;5061519;28;20446;-92
2023/09/28 06:16:21;;;;;;;22.33;4.53;;;;;;;11.70;100.00;99563.22;5056445;28;20052;-92
2023/09/28 06:18:47;;;;;;;21.65;3.15;;;;;;;11.69;100.00;99554.44;5071583;28;20039;-94
2023/09/28 06:21:13;;;;;;;18.05;2.78;;;;;;;11.77;100.00;99562.34;5056439;28;20082;-92
2023/09/28 06:23:40;;;;;;;20.92;3.15;;;;;;;11.79;100.00;99548.94;5058791;28;20051;-89
2023/09/28 06:26:06;;;;;;;17.75;3.15;;;;;;;11.87;100.00;99563.94;5082050;28;20041;-92
2023/09/28 06:28:36;;;;;;;19.48;3.60;;;;;;;11.86;100.00;99560.50;5058742;28;20063;-93
2023/09/28 06:31:02;;;;;;;22.80;3.30;;;;;;;11.88;100.00;99561.13;5060884;28;20509;-92
2023/09/28 06:33:28;;;;;;;19.02;3.25;;;;;;;11.91;100.00;99563.41;5055549;28;20028;-90
2023/09/28 06:35:54;;;;;;;29.90;3.67;;;;;;;11.94;100.00;99551.66;5065741;28;20543;-92
2023/09/28 06:38:20;;;;;;;22.80;3.88;;;;;;;11.94;100.00;99541.06;5064682;28;20024;-91
2023/09/28 06:40:49;;;;;;;22.67;3.58;;;;;;;11.98;100.00;99541.53;5051780;28;20036;-90
2023/09/28 06:43:15;;;;;;;20.15;2.70;;;;;;;11.99;100.00;99540.53;5075216;28;20028;-89
2023/09/28 06:45:42;;;;;;;20.50;3.55;;;;;;;11.98;100.00;99529.13;5053911;28;20036;-90
2023/09/28 06:48:08;;;;;;;24.42;4.55;;;;;;;11.91;100.00;99522.88;5075896;28;20160;-89
2023/09/28 06:50:35;;;;;;;13.77;2.97;;;;;;;11.93;100.00;99517.41;5057458;28;20472;-90
2023/09/28 06:53:02;;;;;;;23.30;3.35;;;;;;;11.91;100.00;99521.03;5088376;28;20043;-88
2023/09/28 06:55:28;;;;;;;14.30;2.65;;;;;;;11.91;100.00;99514.94;5070986;28;20145;-90
2023/09/28 06:57:54;;;;;;;16.92;2.75;;;;;;;11.90;100.00;99513.28;5071817;28;20093;-90
2023/09/28 07:00:20;;;;;;;15.40;3.03;;;;;;;11.91;100.00;99518.41;5060931;28;20047;-89
2023/09/28 07:02:49;;;;;;;23.00;3.75;;;;;;;11.90;100.00;99516.75;5058514;28;20024;-92
2023/09/28 07:05:16;;;;;;;13.77;2.45;;;;;;;11.94;100.00;99522.53;5065106;28;20058;-88
2023/09/28 07:07:45;;;;;;;14.68;3.28;;;;;;;12.00;100.00;99521.00;5076425;28;20103;-89
2023/09/28 07:10:11;;;;;;;20.85;3.10;;;;;;;12.01;100.00;99514.69;5061236;28;20036;-88
2023/09/28 07:12:37;;;;;;;17.55;3.45;;;;;;;11.98;100.00;99521.16;5059948;28;20396;-88
2023/09/28 07:15:04;;;;;;;20.90;3.63;;;;;;;11.99;100.00;99517.50;5060378;28;20039;-90
2023/09/28 07:17:30;;;;;;;21.25;4.15;;;;;;;12.02;100.00;99519.00;5068914;28;20100;-88
2023/09/28 07:19:57;;;;;;;18.33;3.88;;;;;;;12.02;100.00;99508.41;5050001;28;20063;-89
2023/09/28 07:22:22;;;;;;;17.98;3.08;;;;;;;12.07;100.00;99507.88;5065731;28;20076;-87
2023/09/28 07:24:48;;;;;;;21.08;2.95;;;;;;;12.10;100.00;99510.19;5076928;28;20468;-86
2023/09/28 07:27:14;;;;;;;22.13;3.65;;;;;;;12.09;100.00;99511.22;5058406;28;20028;-88
2023/09/28 07:29:40;;;;;;;17.13;3.55;;;;;;;12.11;100.00;99528.56;5070137;28;20032;-89
2023/09/28 07:32:08;;;;;;;20.23;3.15;;;;;;;12.13;100.00;99523.09;5058041;28;20035;-89
2023/09/28 07:34:34;;;;;;;28.67;4.72;;;;;;;12.14;100.00;99512.31;5058656;28;20074;-89
2023/09/28 07:37:01;;;;;;;20.55;3.25;;;;;;;12.13;100.00;99515.13;5069933;28;20031;-89
2023/09/28 07:39:26;;;;;;;16.02;2.92;;;;;;;12.12;100.00;99522.25;5074198;28;20027;-88
2023/09/28 07:41:52;;;;;;;18.95;3.33;;;;;;;12.15;100.00;99521.09;5058283;28;20032;-89
2023/09/28 07:44:19;;;;;;;21.67;3.50;;;;;;;12.20;100.00;99505.47;5060769;28;20118;-88
2023/09/28 07:46:46;;;;;;;16.60;3.22;;;;;;;12.21;100.00;99495.69;5062627;28;20066;-89
2023/09/28 07:49:15;;;;;;;27.42;4.13;;;;;;;12.26;100.00;99498.66;5056912;28;20027;-90
2023/09/28 07:51:44;;;;;;;29.00;3.42;;;;;;;12.26;100.00;99510.06;5054031;28;20030;-89
2023/09/28 07:54:32;;;;;;;18.30;3.05;;;;;;;12.28;100.00;99494.81;5052490;28;20049;-88
2023/09/28 07:56:58;;;;;;;23.92;3.75;;;;;;;12.33;100.00;99499.56;5063985;27;20050;-88
2023/09/28 07:59:24;;;;;;;24.70;3.58;;;;;;;12.40;100.00;99505.81;5064908;28;20039;-89
2023/09/28 08:01:50;;;;;;;19.88;3.53;;;;;;;12.42;100.00;99518.88;5063700;28;20403;-88
2023/09/28 08:04:16;;;;;;;20.98;3.97;;;;;;;12.43;100.00;99517.03;5069108;28;20122;-88
2023/09/28 08:06:42;;;;;;;21.58;3.10;;;;;;;12.46;100.00;99528.13;5062118;28;20130;-89
2023/09/28 08:09:13;;;;;;;20.38;3.30;;;;;;;12.50;100.00;99520.63;5056200;28;20508;-88
2023/09/28 08:11:40;;;;;;;22.55;3.58;;;;;;;12.51;100.00;99524.91;5077200;28;20036;-88
2023/09/28 08:14:06;;;;;;;25.02;4.30;;;;;;;12.54;100.00;99516.59;5067522;28;20028;-88
2023/09/28 08:16:32;;;;;;;22.05;4.22;;;;;;;12.55;100.00;99520.09;5073522;28;20063;-87
2023/09/28 08:18:58;;;;;;;23.55;4.43;;;;;;;12.58;100.00;99517.88;5058075;28;20763;-88
2023/09/28 08:21:24;;;;;;;22.88;4.03;;;;;;;12.62;100.00;99516.53;5059588;28;20057;-89
2023/09/28 08:23:51;;;;;;;26.13;4.43;;;;;;;12.66;100.00;99506.41;5048427;28;20036;-91
2023/09/28 08:26:17;;;;;;;27.05;3.85;;;;;;;12.74;100.00;99513.44;5059000;28;20031;-89
2023/09/28 08:28:42;;;;;;;28.02;4.57;;;;;;;12.81;100.00;99514.34;5075318;28;20042;-89
2023/09/28 08:31:10;;;;;;;22.70;3.60;;;;;;;12.85;100.00;99509.50;5059013;28;20475;-89
2023/09/28 08:33:36;;;;;;;25.88;4.43;;;;;;;12.88;100.00;99515.25;5054949;28;20032;-89
2023/09/28 08:36:02;;;;;;;25.30;4.07;;;;;;;12.92;100.00;99512.25;5069657;28;20118;-89
2023/09/28 08:38:28;;;;;;;23.05;4.18;;;;;;;13.00;100.00;99509.50;5077468;28;20093;-89
2023/09/28 08:41:02;;;;;;;26.00;4.50;;;;;;;13.09;100.00;99504.94;5065649;28;20039;-90
2023/09/28 08:43:32;;;;;;;24.98;4.57;;;;;;;13.14;100.00;99500.72;5073808;28;20035;-88
2023/09/28 08:46:03;;;;;;;26.25;3.92;;;;;;;13.20;100.00;99479.75;5058350;28;20036;-89
2023/09/28 08:48:30;;;;;;;18.13;3.80;;;;;;;13.22;100.00;99483.88;5070718;28;20036;-88
2023/09/28 08:51:06;;;;;;;29.08;4.38;;;;;;;13.32;100.00;99480.09;5060893;28;20074;-88
2023/09/28 08:53:33;;;;;;;24.05;4.10;;;;;;;13.33;100.00;99487.88;5071332;27;20067;-86
2023/09/28 08:55:59;;;;;;;28.25;4.63;;;;;;;13.41;100.00;99486.94;5064215;27;20039;-88
2023/09/28 08:58:25;;;;;;;30.38;4.25;;;;;;;13.40;100.00;99488.78;5071179;28;20134;-88
2023/09/28 09:00:50;;;;;;;24.90;4.47;;;;;;;13.47;100.00;99507.41;5053231;27;20108;-88
2023/09/28 09:03:21;;;;;;;23.00;4.50;;;;;;;13.56;100.00;99502.03;5058422;27;20066;-90
2023/09/28 09:05:50;;;;;;;23.63;4.50;;;;;;;13.58;100.00;99514.13;5059493;28;20117;-87
2023/09/28 09:08:16;;;;;;;19.52;4.40;;;;;;;13.57;100.00;99509.81;5060767;28;20067;-87
2023/09/28 09:10:42;;;;;;;24.42;4.47;;;;;;;13.61;100.00;99499.66;5077921;27;20114;-87
2023/09/28 09:13:21;;;;;;;25.90;4.65;;;;;;;13.65;100.00;99495.59;5060005;28;20019;-89
2023/09/28 09:15:46;;;;;;;22.45;3.65;;;;;;;13.58;100.00;99490.25;5068156;28;20039;-90
2023/09/28 09:18:18;;;;;;;34.20;4.78;;;;;;;13.61;100.00;99483.72;5074103;28;20047;-90
2023/09/28 09:20:48;;;;;;;16.27;3.90;;;;;;;13.61;100.00;99495.19;5059682;28;20066;-87
2023/09/28 09:23:15;;;;;;;19.27;4.35;;;;;;;13.62;100.00;99491.50;5061731;28;20027;-90
2023/09/28 09:25:47;;;;;;;24.08;4.65;;;;;;;13.66;100.00;99509.72;5058669;28;20031;-89
2023/09/28 09:28:27;;;;;;;24.67;3.88;;;;;;;13.68;100.00;99508.50;5076437;28;20031;-89
2023/09/28 09:30:53;;;;;;;30.17;4.72;;;;;;;13.65;100.00;99498.25;5054265;28;20102;-90
2023/09/28 09:33:19;;;;;;;24.00;4.13;;;;;;;13.71;100.00;99499.34;5087184;28;20447;-89
2023/09/28 09:35:45;;;;;;;21.23;4.57;;;;;;;13.72;100.00;99495.69;5069262;27;20043;-87
2023/09/28 09:38:10;;;;;;;19.48;4.45;;;;;;;13.80;100.00;99497.38;5061951;27;20079;-88
2023/09/28 09:40:36;;;;;;;25.83;4.75;;;;;;;13.75;100.00;99476.72;5056234;28;20051;-88
2023/09/28 09:43:10;;;;;;;28.00;4.35;;;;;;;13.80;100.00;99476.97;5061393;28;20035;-89
2023/09/28 09:45:39;;;;;;;19.95;4.63;;;;;;;13.83;100.00;99481.06;5081208;28;20052;-90
2023/09/28 09:48:12;;;;;;;33.95;5.38;;;;;;;13.84;100.00;99494.16;5076938;27;20022;-88
2023/09/28 09:50:38;;;;;;;29.45;6.45;;;;;;;13.91;100.00;99494.22;5074585;28;20094;-87
2023/09/28 09:53:04;;;;;;;28.52;5.20;;;;;;;13.96;100.00;99465.28;5077422;28;20134;-85
2023/09/28 09:55:31;;;;;;;22.15;3.78;;;;;;;13.97;100.00;99471.38;5064274;28;20039;-87
2023/09/28 09:58:03;;;;;;;24.08;4.93;;;;;;;13.99;100.00;99470.19;5065637;28;20032;-88
2023/09/28 10:00:33;;;;;;;25.42;5.07;;;;;;;14.06;100.00;99469.44;5078951;28;20089;-85
2023/09/28 10:03:00;;;;;;;25.15;4.57;;;;;;;14.05;100.00;99467.81;5065886;28;20062;-88
2023/09/28 10:05:27;;;;;;;27.25;5.18;;;;;;;14.08;100.00;99451.47;5068808;28;20131;-89
2023/09/28 10:07:55;;;;;;;26.83;5.60;;;;;;;14.12;100.00;99431.47;5071798;28;20114;-87
2023/09/28 10:10:23;;;;;;;29.95;5.20;;;;;;;14.12;100.00;99434.13;5052032;28;20081;-89
2023/09/28 10:12:50;;;;;;;32.22;4.80;;;;;;;14.07;100.00;99431.22;5055658;28;20035;-89
2023/09/28 10:15:16;;;;;;;19.80;4.50;;;;;;;14.07;100.00;99424.06;5062384;28;20046;-87
2023/09/28 10:17:44;;;;;;;23.58;4.22;;;;;;;14.08;100.00;99425.69;5064633;28;20060;-90
2023/09/28 10:20:13;;;;;;;22.35;4.85;;;;;;;14.11;100.00;99435.16;5072640;28;20101;-90
2023/09/28 10:22:45;;;;;;;17.55;4.70;;;;;;;14.05;100.00;99428.75;5078092;28;20037;-89
2023/09/28 10:25:15;;;;;;;25.15;4.88;;;;;;;14.03;100.00;99414.81;5076515;28;20028;-89
2023/09/28 10:27:45;;;;;;;24.65;4.70;;;;;;;14.07;100.00;99426.72;5079823;28;20027;-89
2023/09/28 10:30:18;;;;;;;20.90;4.53;;;;;;;14.13;100.00;99443.72;5083358;28;20031;-89
2023/09/28 10:32:44;;;;;;;25.13;4.93;;;;;;;14.05;100.00;99442.03;5061757;28;20537;-90
2023/09/28 10:35:31;;;;;;;26.50;5.20;;;;;;;14.11;100.00;99449.22;5078902;28;20035;-88
2023/09/28 10:38:20;;;;;;;26.60;4.97;;;;;;;14.10;100.00;99436.13;5057695;28;20028;-89
2023/09/28 10:41:02;;;;;;;20.52;4.75;;;;;;;14.12;100.00;99439.44;5052488;28;20067;-90
2023/09/28 10:43:30;;;;;;;17.13;4.45;;;;;;;14.11;100.00;99430.63;5072040;28;20027;-90
2023/09/28 10:46:03;;;;;;;26.70;4.70;;;;;;;14.10;100.00;99423.69;5075068;27;20047;-88
2023/09/28 10:48:40;;;;;;;18.92;4.85;;;;;;;14.11;100.00;99435.16;5068897;27;20479;-89
2023/09/28 10:51:15;;;;;;;23.30;4.47;;;;;;;14.13;100.00;99435.75;5064474;28;20040;-89
2023/09/28 10:53:42;;;;;;;29.13;4.47;;;;;;;14.10;100.00;99436.97;5062990;28;20082;-90
2023/09/28 10:56:10;;;;;;;24.73;5.25;;;;;;;14.11;100.00;99438.59;5042024;28;20151;-87
2023/09/28 10:58:37;;;;;;;24.13;4.55;;;;;;;14.09;100.00;99438.00;5038617;28;20036;-89
2023/09/28 11:01:04;;;;;;;21.48;4.75;;;;;;;14.13;100.00;99435.75;5039165;28;20380;-88
2023/09/28 11:03:31;;;;;;;24.42;5.07;;;;;;;14.15;100.00;99433.72;5044390;28;20032;-89
2023/09/28 11:06:04;;;;;;;23.92;5.28;;;;;;;14.22;100.00;99439.09;5044516;28;20468;-89
2023/09/28 11:08:31;;;;;;;17.83;4.47;;;;;;;14.20;100.00;99441.13;5039174;28;20042;-89
2023/09/28 11:10:58;;;;;;;26.00;4.85;;;;;;;14.22;100.00;99436.44;5044238;28;20050;-90
2023/09/28 11:13:25;;;;;;;20.17;4.10;;;;;;;14.20;100.00;99438.47;5042861;28;20021;-88
2023/09/28 11:15:52;;;;;;;25.75;5.05;;;;;;;14.15;100.00;99420.44;5055749;28;20036;-89
2023/09/28 11:18:18;;;;;;;19.27;4.35;;;;;;;14.21;100.00;99424.97;5036240;28;20472;-89
2023/09/28 11:20:44;;;;;;;17.88;4.47;;;;;;;14.24;100.00;99424.59;5040349;28;20028;-86
2023/09/28 11:23:12;;;;;;;19.73;4.70;;;;;;;14.28;100.00;99425.03;5038795;28;20046;-89
2023/09/28 11:25:40;;;;;;;32.47;6.05;;;;;;;14.39;100.00;99432.47;5036823;28;20040;-88
2023/09/28 11:28:09;;;;;;;22.30;4.90;;;;;;;14.45;100.00;99425.56;5057821;28;20101;-89
2023/09/28 11:30:36;;;;;;;23.27;4.82;;;;;;;14.50;100.00;99427.63;5059807;28;20038;-90
2023/09/28 11:33:04;;;;;;;23.75;5.75;;;;;;;14.55;100.00;99424.38;5037600;28;20032;-88
2023/09/28 11:35:38;;;;;;;27.10;4.80;;;;;;;14.59;100.00;99418.47;5048094;28;20040;-89
2023/09/28 11:38:10;;;;;;;19.73;5.35;;;;;;;14.58;100.00;99427.47;5035909;28;20048;-90
2023/09/28 11:40:39;;;;;;;29.35;5.18;;;;;;;14.60;100.00;99429.94;5054745;28;20072;-88
2023/09/28 11:43:08;;;;;;;16.60;4.65;;;;;;;14.60;100.00;99417.47;5053738;28;20114;-87
2023/09/28 11:45:34;;;;;;;22.50;4.25;;;;;;;14.59;100.00;99399.03;5041004;28;20035;-89
2023/09/28 11:48:06;;;;;;;22.60;4.95;;;;;;;14.63;100.00;99381.69;5073797;28;20115;-89
2023/09/28 11:50:33;;;;;;;19.88;4.20;;;;;;;14.64;100.00;99380.66;5041765;28;20479;-92
2023/09/28 11:52:59;;;;;;;24.05;5.68;;;;;;;14.78;100.00;99378.06;5049671;28;20043;-87
2023/09/28 11:55:25;;;;;;;20.60;4.57;;;;;;;14.81;100.00;99383.81;5067966;28;20059;-89
2023/09/28 11:57:55;;;;;;;24.70;4.32;;;;;;;14.95;100.00;99373.22;5051230;28;20371;-90
2023/09/28 12:00:21;;;;;;;19.83;4.72;;;;;;;14.85;100.00;99365.63;5078749;28;20039;-89
2023/09/28 12:02:47;;;;;;;20.77;5.18;;;;;;;14.94;100.00;99366.28;5061662;28;20027;-89
2023/09/28 12:05:14;;;;;;;19.80;5.38;;;;;;;14.92;100.00;99363.81;5059215;28;20034;-87
2023/09/28 12:07:41;;;;;;;22.40;4.50;;;;;;;14.91;100.00;99372.81;5059249;28;20039;-88
2023/09/28 12:10:17;;;;;;;22.98;5.13;;;;;;;14.91;100.00;99358.69;5060638;28;20124;-91
2023/09/28 12:12:46;;;;;;;18.17;4.43;;;;;;;14.90;100.00;99359.69;5057005;28;20032;-89
2023/09/28 12:15:12;;;;;;;25.20;4.30;;;;;;;14.97;100.00;99364.03;5055999;28;20063;-88
2023/09/28 12:17:39;;;;;;;24.77;5.07;;;;;;;15.01;100.00;99353.81;5062484;27;20132;-88